createdAt,value
2022-08-17T00:00:42.598Z,23.27
2022-08-17T00:03:10.856Z,21.60
2022-08-17T00:05:44.722Z,21.13
2022-08-17T00:08:14.734Z,20.80
2022-08-17T00:10:44.131Z,22.10
2022-08-17T00:13:17.393Z,19.00
2022-08-17T00:15:45.923Z,25.90
2022-08-17T00:19:01.269Z,22.27
2022-08-17T00:21:10.346Z,19.70
2022-08-17T00:23:46.219Z,24.03
2022-08-17T00:26:44.145Z,23.63
2022-08-17T00:29:08.067Z,24.73
2022-08-17T00:31:37.239Z,23.07
2022-08-17T00:34:06.572Z,24.53
2022-08-17T00:36:36.307Z,22.33
2022-08-17T00:39:04.711Z,21.20
2022-08-17T00:41:35.739Z,27.23
2022-08-17T00:44:06.548Z,23.27
2022-08-17T00:46:41.956Z,25.90
2022-08-17T00:49:19.355Z,23.13
2022-08-17T00:51:53.790Z,24.43
2022-08-17T00:54:26.340Z,22.60
2022-08-17T00:56:57.947Z,24.27
2022-08-17T00:59:31.906Z,24.67
2022-08-17T01:02:00.880Z,24.43
2022-08-17T01:04:31.069Z,25.43
2022-08-17T01:07:04.612Z,28.10
2022-08-17T01:09:34.073Z,28.03
2022-08-17T01:12:02.384Z,25.77
2022-08-17T01:14:30.672Z,27.03
2022-08-17T01:17:00.235Z,25.67
2022-08-17T01:19:34.285Z,25.17
2022-08-17T01:22:09.116Z,28.63
2022-08-17T01:24:41.925Z,27.77
2022-08-17T01:27:13.391Z,27.17
2022-08-17T01:29:46.304Z,26.30
2022-08-17T01:32:14.729Z,29.30
2022-08-17T01:34:49.483Z,23.00
2022-08-17T01:37:20.878Z,25.37
2022-08-17T01:39:55.008Z,27.77
2022-08-17T01:42:30.596Z,28.93
2022-08-17T01:45:04.409Z,28.97
2022-08-17T01:47:32.984Z,28.13
2022-08-17T01:50:10.812Z,28.30
2022-08-17T01:52:39.579Z,30.73
2022-08-17T01:55:11.012Z,26.77
2022-08-17T01:57:39.271Z,30.80
2022-08-17T02:00:11.128Z,32.07
2022-08-17T02:02:39.501Z,29.03
2022-08-17T02:05:09.031Z,32.23
2022-08-17T02:07:59.785Z,30.10
2022-08-17T02:10:34.247Z,31.07
2022-08-17T02:13:04.210Z,32.50
2022-08-17T02:15:34.635Z,28.80
2022-08-17T02:18:03.306Z,28.83
2022-08-17T02:20:41.636Z,27.00
2022-08-17T02:23:12.920Z,29.27
2022-08-17T02:25:47.696Z,29.53
2022-08-17T02:28:16.231Z,32.73
2022-08-17T02:30:59.406Z,31.70
2022-08-17T02:33:43.285Z,33.43
2022-08-17T02:36:13.954Z,32.93
2022-08-17T02:38:43.424Z,30.93
2022-08-17T02:41:13.446Z,26.23
2022-08-17T02:43:41.921Z,31.00
2022-08-17T02:46:12.730Z,33.20
2022-08-17T02:48:41.070Z,29.10
2022-08-17T02:51:09.362Z,33.67
2022-08-17T02:53:37.710Z,29.93
2022-08-17T02:56:06.221Z,29.70
2022-08-17T02:58:36.325Z,29.50
2022-08-17T03:01:05.731Z,31.97
2022-08-17T03:03:34.575Z,32.37
2022-08-17T03:06:03.324Z,26.73
2022-08-17T03:08:32.601Z,26.17
2022-08-17T03:11:00.935Z,25.40
2022-08-17T03:13:30.808Z,31.57
2022-08-17T03:16:00.589Z,29.00
2022-08-17T03:18:29.053Z,31.17
2022-08-17T03:21:00.679Z,31.37
2022-08-17T03:23:29.915Z,32.70
2022-08-17T03:26:00.072Z,28.23
2022-08-17T03:28:29.415Z,32.50
2022-08-17T03:30:57.753Z,30.90
2022-08-17T03:33:27.532Z,31.47
2022-08-17T03:35:55.760Z,30.87
2022-08-17T03:38:24.249Z,33.40
2022-08-17T03:40:57.632Z,32.33
2022-08-17T03:43:29.960Z,29.37
2022-08-17T03:46:27.053Z,30.83
2022-08-17T03:49:23.796Z,32.20
2022-08-17T03:52:09.475Z,31.40
2022-08-17T03:54:55.840Z,31.33
2022-08-17T03:57:24.679Z,33.13
2022-08-17T03:59:53.369Z,37.00
2022-08-17T04:02:24.670Z,35.93
2022-08-17T04:04:54.751Z,31.27
2022-08-17T04:07:27.479Z,33.17
2022-08-17T04:09:57.939Z,32.77
2022-08-17T04:12:30.727Z,32.23
2022-08-17T04:14:59.357Z,33.77
2022-08-17T04:17:29.789Z,35.37
2022-08-17T04:19:59.413Z,34.60
2022-08-17T04:22:30.008Z,30.40
2022-08-17T04:25:03.805Z,33.13
2022-08-17T04:27:32.042Z,31.53
2022-08-17T04:30:00.386Z,29.97
2022-08-17T04:33:00.786Z,32.53
2022-08-17T04:35:22.407Z,33.93
2022-08-17T04:37:51.178Z,31.47
2022-08-17T04:40:34.921Z,30.23
2022-08-17T04:43:05.417Z,28.80
2022-08-17T04:45:33.753Z,32.00
2022-08-17T04:48:02.289Z,32.97
2022-08-17T04:50:31.908Z,27.73
2022-08-17T04:53:00.897Z,30.57
2022-08-17T04:55:29.740Z,27.70
2022-08-17T04:57:58.073Z,31.40
2022-08-17T05:00:26.910Z,33.17
2022-08-17T05:02:57.085Z,28.83
2022-08-17T05:05:28.160Z,28.13
2022-08-17T05:08:00.684Z,27.23
2022-08-17T05:10:33.046Z,26.13
2022-08-17T05:13:02.598Z,29.47
2022-08-17T05:15:33.137Z,27.50
2022-08-17T05:18:05.023Z,26.67
2022-08-17T05:20:33.828Z,25.30
2022-08-17T05:23:07.144Z,27.65
2022-08-17T05:25:38.787Z,28.02
2022-08-17T05:28:07.908Z,26.87
2022-08-17T05:30:38.037Z,28.52
2022-08-17T05:33:08.400Z,26.87
2022-08-17T05:35:39.608Z,28.43
2022-08-17T05:38:09.505Z,22.77
2022-08-17T05:40:38.327Z,28.45
2022-08-17T05:43:09.645Z,22.77
2022-08-17T05:45:56.173Z,23.92
2022-08-17T05:48:35.824Z,25.45
2022-08-17T05:51:25.675Z,28.47
2022-08-17T05:54:04.206Z,29.77
2022-08-17T05:56:52.874Z,26.48
2022-08-17T05:59:30.579Z,24.85
2022-08-17T06:02:12.627Z,22.75
2022-08-17T06:04:58.899Z,54.97
2022-08-17T06:07:33.525Z,40.97
2022-08-17T06:10:12.215Z,43.08
2022-08-17T06:12:47.346Z,34.30
2022-08-17T06:15:26.166Z,23.63
2022-08-17T06:17:58.794Z,32.92
2022-08-17T06:20:31.618Z,33.88
2022-08-17T06:23:05.978Z,40.00
2022-08-17T06:25:44.068Z,37.08
2022-08-17T06:28:16.263Z,16.20
2022-08-17T06:30:59.824Z,20.83
2022-08-17T06:33:34.374Z,19.50
2022-08-17T06:36:11.435Z,22.52
2022-08-17T06:38:53.254Z,19.63
2022-08-17T06:41:32.567Z,22.52
2022-08-17T06:44:43.551Z,16.00
2022-08-17T06:47:09.005Z,19.08
2022-08-17T06:49:44.335Z,19.50
2022-08-17T06:52:42.173Z,19.13
2022-08-17T06:55:18.703Z,18.25
2022-08-17T06:57:52.079Z,17.08
2022-08-17T07:00:23.894Z,16.77
2022-08-17T07:03:03.419Z,18.20
2022-08-17T07:05:36.665Z,18.88
2022-08-17T07:08:32.888Z,14.77
2022-08-17T07:11:08.973Z,16.17
2022-08-17T07:13:51.087Z,15.48
2022-08-17T07:16:25.470Z,17.08
2022-08-17T07:18:56.886Z,15.95
2022-08-17T07:21:39.432Z,16.95
2022-08-17T07:24:29.852Z,16.45
2022-08-17T07:27:12.949Z,15.48
2022-08-17T07:29:46.987Z,16.38
2022-08-17T07:32:18.667Z,17.10
2022-08-17T07:35:15.328Z,17.88
2022-08-17T07:37:46.056Z,17.33
2022-08-17T07:40:28.113Z,16.15
2022-08-17T07:43:23.250Z,12.23
2022-08-17T07:46:35.285Z,9.82
2022-08-17T07:49:35.408Z,11.48
2022-08-17T07:52:24.140Z,11.98
2022-08-17T07:54:56.145Z,11.50
2022-08-17T07:57:37.611Z,14.32
2022-08-17T08:00:26.667Z,11.98
2022-08-17T08:03:16.033Z,11.98
2022-08-17T08:05:57.534Z,12.63
2022-08-17T08:08:34.249Z,16.98
2022-08-17T08:11:09.231Z,10.93
2022-08-17T08:13:42.782Z,12.50
2022-08-17T08:16:22.701Z,11.48
2022-08-17T08:18:57.416Z,12.68
2022-08-17T08:21:41.803Z,11.55
2022-08-17T08:24:30.941Z,11.63
2022-08-17T08:27:16.002Z,20.90
2022-08-17T08:29:55.231Z,10.65
2022-08-17T08:32:37.266Z,11.45
2022-08-17T08:35:10.270Z,17.25
2022-08-17T08:37:48.248Z,8.57
2022-08-17T08:40:34.087Z,13.65
2022-08-17T08:43:11.658Z,13.68
2022-08-17T08:45:48.181Z,9.35
2022-08-17T08:48:52.755Z,9.77
2022-08-17T08:51:32.622Z,11.98
2022-08-17T08:54:12.376Z,9.85
2022-08-17T08:57:19.244Z,7.95
2022-08-17T08:59:44.256Z,8.50
2022-08-17T09:02:25.276Z,10.98
2022-08-17T09:05:14.338Z,7.32
2022-08-17T09:07:54.681Z,9.52
2022-08-17T09:10:29.924Z,10.45
2022-08-17T09:13:10.275Z,12.82
2022-08-17T09:15:44.322Z,10.70
2022-08-17T09:19:00.389Z,9.00
2022-08-17T09:21:15.050Z,9.20
2022-08-17T09:23:59.863Z,9.05
2022-08-17T09:26:32.759Z,7.93
2022-08-17T09:29:04.440Z,9.95
2022-08-17T09:31:35.590Z,8.20
2022-08-17T09:34:21.230Z,12.75
2022-08-17T09:37:01.260Z,9.73
2022-08-17T09:39:35.791Z,8.60
2022-08-17T09:42:11.963Z,7.10
2022-08-17T09:44:43.874Z,8.05
2022-08-17T09:47:17.324Z,8.90
2022-08-17T09:49:50.019Z,10.50
2022-08-17T09:52:25.480Z,9.68
2022-08-17T09:54:58.196Z,10.00
2022-08-17T09:57:39.261Z,8.52
2022-08-17T10:00:25.209Z,7.90
2022-08-17T10:03:21.091Z,7.07
2022-08-17T10:05:56.814Z,6.13
2022-08-17T10:08:37.422Z,6.30
2022-08-17T10:11:19.548Z,10.70
2022-08-17T10:13:59.528Z,8.55
2022-08-17T10:16:37.351Z,6.72
2022-08-17T10:19:14.915Z,6.90
2022-08-17T10:22:32.446Z,9.18
2022-08-17T10:25:22.696Z,8.27
2022-08-17T10:27:58.652Z,8.55
2022-08-17T10:30:29.436Z,9.18
2022-08-17T10:33:01.595Z,14.52
2022-08-17T10:35:34.315Z,8.55
2022-08-17T10:38:24.560Z,8.02
2022-08-17T10:40:58.407Z,7.57
2022-08-17T10:43:44.763Z,7.88
2022-08-17T10:46:52.315Z,7.85
2022-08-17T10:49:39.000Z,8.30
2022-08-17T10:52:49.308Z,11.15
2022-08-17T10:55:20.383Z,7.25
2022-08-17T10:57:50.784Z,8.80
2022-08-17T11:01:12.663Z,10.23
2022-08-17T11:03:55.186Z,11.35
2022-08-17T11:06:37.318Z,9.48
2022-08-17T11:09:32.599Z,10.02
2022-08-17T11:12:15.541Z,9.15
2022-08-17T11:15:14.091Z,11.07
2022-08-17T11:18:16.162Z,9.70
2022-08-17T11:21:10.685Z,7.90
2022-08-17T11:23:57.907Z,7.50
2022-08-17T11:26:30.570Z,7.55
2022-08-17T11:29:03.111Z,10.32
2022-08-17T11:31:38.417Z,6.82
2022-08-17T11:34:15.192Z,9.48
2022-08-17T11:37:02.762Z,10.25
2022-08-17T11:39:55.173Z,8.68
2022-08-17T11:42:36.306Z,7.63
2022-08-17T11:45:32.123Z,7.45
2022-08-17T11:48:31.523Z,6.93
2022-08-17T11:51:21.950Z,10.15
2022-08-17T11:54:34.669Z,7.82
2022-08-17T11:57:41.877Z,10.18
2022-08-17T12:00:32.235Z,8.10
2022-08-17T12:03:24.925Z,6.32
2022-08-17T12:06:03.584Z,9.10
2022-08-17T12:08:33.960Z,9.80
2022-08-17T12:11:07.766Z,10.77
2022-08-17T12:13:44.103Z,8.32
2022-08-17T12:16:17.459Z,8.23
2022-08-17T12:18:51.651Z,6.05
2022-08-17T12:21:27.593Z,7.78
2022-08-17T12:24:06.542Z,9.27
2022-08-17T12:26:38.319Z,9.75
2022-08-17T12:29:17.881Z,8.77
2022-08-17T12:32:03.509Z,9.35
2022-08-17T12:34:38.063Z,9.23
2022-08-17T12:37:14.606Z,8.13
2022-08-17T12:39:54.659Z,9.20
2022-08-17T12:42:27.066Z,10.35
2022-08-17T12:44:55.407Z,13.00
2022-08-17T12:47:23.645Z,10.60
2022-08-17T12:49:53.366Z,9.00
2022-08-17T12:52:25.387Z,10.75
2022-08-17T12:54:59.469Z,9.18
2022-08-17T12:57:33.982Z,9.70
2022-08-17T13:00:09.900Z,8.10
2022-08-17T13:02:45.306Z,8.68
2022-08-17T13:05:23.131Z,9.48
2022-08-17T13:07:53.159Z,9.93
2022-08-17T13:10:31.674Z,10.52
2022-08-17T13:13:04.893Z,9.93
2022-08-17T13:15:38.469Z,10.45
2022-08-17T13:18:45.763Z,10.43
2022-08-17T13:21:26.799Z,6.28
2022-08-17T13:24:01.494Z,8.45
2022-08-17T13:26:33.620Z,9.25
2022-08-17T13:29:07.658Z,13.60
2022-08-17T13:31:51.956Z,10.20
2022-08-17T13:34:34.384Z,15.07
2022-08-17T13:37:26.372Z,7.40
2022-08-17T13:39:57.401Z,10.48
2022-08-17T13:42:50.349Z,11.60
2022-08-17T13:45:52.253Z,7.63
2022-08-17T13:48:27.747Z,9.10
2022-08-17T13:51:16.198Z,8.52
2022-08-17T13:54:01.774Z,6.72
2022-08-17T13:56:52.758Z,9.00
2022-08-17T13:59:53.224Z,10.73
2022-08-17T14:02:21.617Z,9.85
2022-08-17T14:04:50.380Z,8.95
2022-08-17T14:07:29.600Z,15.98
2022-08-17T14:10:01.379Z,10.73
2022-08-17T14:12:32.930Z,9.02
2022-08-17T14:15:02.111Z,10.27
2022-08-17T14:17:36.513Z,8.32
2022-08-17T14:20:09.390Z,11.77
2022-08-17T14:22:40.886Z,7.28
2022-08-17T14:25:10.353Z,11.27
2022-08-17T14:27:47.097Z,7.90
2022-08-17T14:30:24.405Z,13.73
2022-08-17T14:32:55.083Z,14.95
2022-08-17T14:35:24.972Z,7.20
2022-08-17T14:37:53.898Z,11.05
2022-08-17T14:40:25.038Z,13.48
2022-08-17T14:42:55.440Z,9.07
2022-08-17T14:45:32.003Z,9.15
2022-08-17T14:48:06.319Z,10.73
2022-08-17T14:50:35.678Z,7.95
2022-08-17T14:53:06.057Z,11.30
2022-08-17T14:55:35.471Z,10.82
2022-08-17T14:58:05.059Z,12.02
2022-08-17T15:00:34.091Z,8.52
2022-08-17T15:03:03.988Z,8.95
2022-08-17T15:05:36.652Z,9.57
2022-08-17T15:08:06.360Z,7.60
2022-08-17T15:10:34.820Z,9.32
2022-08-17T15:13:03.322Z,10.55
2022-08-17T15:15:32.204Z,11.77
2022-08-17T15:18:01.016Z,9.65
2022-08-17T15:20:31.592Z,12.80
2022-08-17T15:23:00.288Z,7.85
2022-08-17T15:25:31.832Z,7.45
2022-08-17T15:28:01.545Z,11.48
2022-08-17T15:30:32.170Z,10.50
2022-08-17T15:33:01.849Z,11.50
2022-08-17T15:35:33.594Z,10.15
2022-08-17T15:38:10.171Z,11.77
2022-08-17T15:40:41.600Z,9.50
2022-08-17T15:43:11.853Z,11.02
2022-08-17T15:45:40.876Z,7.65
2022-08-17T15:48:10.134Z,9.52
2022-08-17T15:50:39.873Z,11.00
2022-08-17T15:53:08.176Z,10.27
2022-08-17T15:55:38.392Z,10.63
2022-08-17T15:58:07.130Z,14.90
2022-08-17T16:00:51.596Z,9.50
2022-08-17T16:03:58.422Z,11.90
2022-08-17T16:06:15.631Z,7.45
2022-08-17T16:08:45.431Z,7.57
2022-08-17T16:11:14.577Z,11.07
2022-08-17T16:13:47.368Z,9.50
2022-08-17T16:16:23.568Z,10.38
2022-08-17T16:18:53.634Z,11.23
2022-08-17T16:21:42.362Z,11.50
2022-08-17T16:24:12.709Z,11.88
2022-08-17T16:26:42.003Z,11.48
2022-08-17T16:29:10.978Z,8.50
2022-08-17T16:31:40.077Z,10.45
2022-08-17T16:34:17.744Z,10.95
2022-08-17T16:36:51.867Z,14.23
2022-08-17T16:39:25.051Z,10.30
2022-08-17T16:41:53.339Z,12.95
2022-08-17T16:44:22.600Z,11.93
2022-08-17T16:46:51.445Z,9.90
2022-08-17T16:49:35.749Z,9.98
2022-08-17T16:52:11.248Z,13.68
2022-08-17T16:54:43.740Z,13.18
2022-08-17T16:57:13.089Z,13.77
2022-08-17T16:59:44.905Z,13.45
2022-08-17T17:02:17.527Z,15.05
2022-08-17T17:04:53.096Z,11.57
2022-08-17T17:07:38.556Z,12.20
2022-08-17T17:10:10.351Z,13.25
2022-08-17T17:13:02.530Z,12.25
2022-08-17T17:15:38.073Z,10.38
2022-08-17T17:18:07.728Z,9.70
2022-08-17T17:20:44.023Z,12.18
2022-08-17T17:23:26.133Z,12.63
2022-08-17T17:25:59.192Z,10.85
2022-08-17T17:28:38.299Z,13.95
2022-08-17T17:31:12.946Z,16.02
2022-08-17T17:33:47.815Z,14.05
2022-08-17T17:36:25.460Z,12.25
2022-08-17T17:39:00.071Z,13.25
2022-08-17T17:41:34.271Z,13.10
2022-08-17T17:44:07.543Z,15.80
2022-08-17T17:46:39.495Z,13.75
2022-08-17T17:49:10.172Z,12.75
2022-08-17T17:52:06.662Z,12.10
2022-08-17T17:54:58.348Z,14.15
2022-08-17T17:57:37.063Z,18.35
2022-08-17T18:00:13.499Z,13.30
2022-08-17T18:02:52.584Z,13.25
2022-08-17T18:06:01.253Z,14.55
2022-08-17T18:08:49.818Z,16.73
2022-08-17T18:11:43.675Z,16.30
2022-08-17T18:14:23.804Z,15.75
2022-08-17T18:16:56.874Z,14.18
2022-08-17T18:19:27.356Z,18.40
2022-08-17T18:22:05.146Z,20.13
2022-08-17T18:24:37.841Z,15.30
2022-08-17T18:27:21.503Z,41.60
2022-08-17T18:29:50.804Z,38.03
2022-08-17T18:32:34.692Z,39.65
2022-08-17T18:35:27.950Z,16.33
2022-08-17T18:37:58.956Z,15.27
2022-08-17T18:40:37.800Z,16.38
2022-08-17T18:43:14.292Z,17.23
2022-08-17T18:45:47.190Z,18.77
2022-08-17T18:48:25.806Z,18.25
2022-08-17T18:50:56.361Z,14.98
2022-08-17T18:53:38.484Z,19.30
2022-08-17T18:56:27.432Z,24.65
2022-08-17T18:59:21.372Z,15.38
2022-08-17T19:02:15.501Z,15.75
2022-08-17T19:05:00.972Z,14.10
2022-08-17T19:07:31.918Z,17.25
2022-08-17T19:10:12.341Z,15.30
2022-08-17T19:12:46.137Z,18.00
2022-08-17T19:15:21.724Z,18.90
2022-08-17T19:18:00.504Z,14.88
2022-08-17T19:20:35.404Z,13.93
2022-08-17T19:23:23.847Z,14.52
2022-08-17T19:25:55.220Z,19.42
2022-08-17T19:28:29.360Z,39.22
2022-08-17T19:31:02.003Z,16.02
2022-08-17T19:33:32.412Z,17.02
2022-08-17T19:36:07.025Z,24.60
2022-08-17T19:38:46.234Z,23.48
2022-08-17T19:41:25.397Z,21.58
2022-08-17T19:44:16.563Z,25.90
2022-08-17T19:46:58.413Z,21.92
2022-08-17T19:49:41.415Z,23.30
2022-08-17T19:52:41.306Z,23.58
2022-08-17T19:55:20.424Z,16.77
2022-08-17T19:58:00.687Z,20.67
2022-08-17T20:00:31.177Z,23.60
2022-08-17T20:03:09.307Z,17.55
2022-08-17T20:06:01.467Z,23.33
2022-08-17T20:08:33.415Z,17.45
2022-08-17T20:11:05.619Z,21.02
2022-08-17T20:13:40.239Z,21.00
2022-08-17T20:16:10.087Z,18.95
2022-08-17T20:18:50.651Z,18.90
2022-08-17T20:21:24.264Z,22.58
2022-08-17T20:23:56.846Z,17.55
2022-08-17T20:26:28.191Z,22.25
2022-08-17T20:29:36.908Z,23.02
2022-08-17T20:32:25.539Z,19.35
2022-08-17T20:35:19.460Z,25.95
2022-08-17T20:37:54.901Z,24.15
2022-08-17T20:40:30.427Z,20.23
2022-08-17T20:42:59.621Z,26.40
2022-08-17T20:45:47.485Z,25.25
2022-08-17T20:48:36.777Z,23.25
2022-08-17T20:51:24.383Z,19.52
2022-08-17T20:54:34.343Z,18.95
2022-08-17T20:57:03.195Z,21.25
2022-08-17T21:00:01.292Z,20.27
2022-08-17T21:02:30.344Z,18.83
2022-08-17T21:05:30.335Z,21.77
2022-08-17T21:08:12.886Z,22.15
2022-08-17T21:10:43.915Z,21.70
2022-08-17T21:13:38.611Z,23.80
2022-08-17T21:16:23.429Z,21.25
2022-08-17T21:18:59.339Z,22.58
2022-08-17T21:21:38.389Z,18.20
2022-08-17T21:24:25.748Z,24.20
2022-08-17T21:27:00.799Z,23.58
2022-08-17T21:29:33.944Z,24.85
2022-08-17T21:32:23.709Z,21.38
2022-08-17T21:35:31.121Z,19.63
2022-08-17T21:38:05.180Z,19.67
2022-08-17T21:40:36.354Z,21.60
2022-08-17T21:43:18.732Z,22.80
2022-08-17T21:45:56.751Z,22.65
2022-08-17T21:48:27.263Z,22.27
2022-08-17T21:51:03.681Z,24.05
2022-08-17T21:53:39.410Z,21.40
2022-08-17T21:56:11.525Z,20.05
2022-08-17T21:58:46.604Z,20.23
2022-08-17T22:01:26.462Z,21.08
2022-08-17T22:04:05.029Z,24.60
2022-08-17T22:06:38.115Z,21.27
2022-08-17T22:09:17.361Z,23.38
2022-08-17T22:11:57.295Z,22.23
2022-08-17T22:14:53.044Z,21.23
2022-08-17T22:17:19.785Z,23.88
2022-08-17T22:19:50.264Z,19.70
2022-08-17T22:22:26.887Z,21.27
2022-08-17T22:24:57.514Z,24.33
2022-08-17T22:27:56.315Z,23.23
2022-08-17T22:30:34.777Z,27.23
2022-08-17T22:33:35.532Z,25.40
2022-08-17T22:36:29.519Z,25.05
2022-08-17T22:38:59.524Z,24.85
2022-08-17T22:41:54.359Z,24.20
2022-08-17T22:44:30.169Z,23.48
2022-08-17T22:47:06.678Z,24.30
2022-08-17T22:49:54.709Z,25.00
2022-08-17T22:52:34.975Z,24.45
2022-08-17T22:55:25.499Z,26.80
2022-08-17T22:58:11.574Z,24.42
2022-08-17T23:00:42.223Z,24.38
2022-08-17T23:03:18.491Z,23.42
2022-08-17T23:06:03.407Z,27.25
2022-08-17T23:08:32.609Z,23.55
2022-08-17T23:11:01.143Z,22.92
2022-08-17T23:13:33.394Z,29.88
2022-08-17T23:16:02.441Z,23.70
2022-08-17T23:18:31.078Z,26.30
2022-08-17T23:21:01.272Z,24.95
2022-08-17T23:23:31.589Z,26.85
2022-08-17T23:25:59.855Z,24.10
2022-08-17T23:28:28.571Z,22.63
2022-08-17T23:30:56.885Z,28.85
2022-08-17T23:33:31.015Z,29.13
2022-08-17T23:36:00.932Z,24.88
2022-08-17T23:38:31.771Z,27.83
2022-08-17T23:41:02.522Z,25.92
2022-08-17T23:43:31.612Z,27.80
2022-08-17T23:46:01.002Z,23.43
2022-08-17T23:48:35.699Z,26.77
2022-08-17T23:51:09.851Z,23.45
2022-08-17T23:53:41.927Z,26.00
2022-08-17T23:56:11.836Z,24.40
2022-08-17T23:58:42.225Z,29.08
